METAR AND TAF INFORMATION
METAR FOR EGHI
ADDS - METARS form results

(1106 UTC 23 May 2019)
Data provider http://aviationweather.gov/metar/data/
 
METAR text: EGHI 231050Z 17005KT 080V240 9999 FEW045 19/07 Q1016
Conditions at: EGHI (SOUTHAMPTON WX C, GB) observed 1050 UTC 23 May 2019
Temperature: 19.0°C (66°F)
Dewpoint: 7.0°C (45°F) [RH = 46%]
Pressure (altimeter): 30.00 inches Hg (1016.0 mb)
Winds: from the S (170 degrees) at 6 MPH (5 knots; 2.6 m/s)
Visibility: 6 or more miles (10+ km)
Ceiling: at least 12,000 feet AGL
Clouds: few clouds at 4500 feet AGL
Weather: no significant weather observed at this time

METAR text: EGHI 231020Z 12004KT 060V190 CAVOK 18/07 Q1016
Conditions at: EGHI (SOUTHAMPTON WX C, GB) observed 1020 UTC 23 May 2019
Temperature: 18.0°C (64°F)
Dewpoint: 7.0°C (45°F) [RH = 49%]
Pressure (altimeter): 30.00 inches Hg (1016.0 mb)
Winds: from the ESE (120 degrees) at 5 MPH (4 knots; 2.1 m/s)
Visibility: 6 or more miles (10+ km)
Ceiling: ceiling and visibility are OK
Clouds: unknown
Weather: no significant weather observed at this time

Forecast for: EGHI (SOUTHAMPTON WX C, GB)
Text: TAF EGHI 230756Z 2309/2318 VRB03KT 9999 FEW045
Forecast period: 0900 to 1800 UTC 23 May 2019
Forecast type: FROM: standard forecast or significant change
Winds: variable direction winds at 3 MPH (3 knots; 1.5 m/s)
Visibility: 6 or more miles 10+ km)
Ceiling: at least 12,000 feet AGL
Clouds: few clouds at 4500 feet AGL
Weather: no significant weather forecast for this period
Text: BECMG 2309/2312 19010KT
Forecast period: 0900 to 1800 UTC 23 May 2019
Forecast type: BECOMING: Conditions expected to become as follows by 1200 UTC 23 May 2019
Winds: from the S (190 degrees) at 12 MPH (10 knots; 5.1 m/s)
Visibility: 6 or more miles 10+ km)
Ceiling: at least 12,000 feet AGL
Clouds: few clouds at 4500 feet AGL
Weather: no significant weather forecast for this period

AIRPORT MAP

RUNWAY INFORMATION
Runway 02 Runway length 5653 ft Runway width 121 ft
Runway elevation 31 ft Runway displaced threshold 240 ft Runway heading 19
Runway 20 Runway length 5653 ft Runway width 121 ft
Runway elevation 44 ft Runway displaced threshold 145 ft Runway heading 199

AIRPORT FREQUENCIES
Type APP Name APP Frequency 128.85 MHZ
Type ATIS Name ATIS Frequency 113.35 MHZ
Type GND Name GND Frequency 121.775 MHZ
Type OPS Name OPS Frequency 130.65 MHZ
Type TWR Name TWR Frequency 118.2 MHZ

AIRPORT NEAR NAVIGATION AIDS
Type NDB Name Southampton Frequency 392 KHZ
Type VOR-DME Name Southampton Frequency 113350 KHZ